createdAt,value
2019-02-19T00:01:39.743Z,5.17
2019-02-19T00:04:30.283Z,6.10
2019-02-19T00:07:20.593Z,5.57
2019-02-19T00:10:10.673Z,5.60
2019-02-19T00:13:01.050Z,5.20
2019-02-19T00:15:51.273Z,5.00
2019-02-19T00:18:41.946Z,4.50
2019-02-19T00:21:32.093Z,4.20
2019-02-19T00:24:22.930Z,4.07
2019-02-19T00:27:13.053Z,3.67
2019-02-19T00:30:03.053Z,3.87
2019-02-19T00:32:53.562Z,3.30
2019-02-19T00:35:43.755Z,4.23
2019-02-19T00:38:34.761Z,3.23
2019-02-19T00:41:25.094Z,3.80
2019-02-19T00:44:15.374Z,2.97
2019-02-19T00:47:05.630Z,3.50
2019-02-19T00:49:55.810Z,3.63
2019-02-19T00:52:45.793Z,3.43
2019-02-19T00:55:36.136Z,3.13
2019-02-19T00:58:26.298Z,4.07
2019-02-19T01:01:16.574Z,3.90
2019-02-19T01:04:06.773Z,3.87
2019-02-19T01:06:57.230Z,4.33
2019-02-19T01:09:47.470Z,4.23
2019-02-19T01:12:37.687Z,4.77
2019-02-19T01:15:28.182Z,4.70
2019-02-19T01:18:18.458Z,4.67
2019-02-19T01:21:08.778Z,4.30
2019-02-19T01:23:58.859Z,5.43
2019-02-19T01:26:48.922Z,4.53
2019-02-19T01:29:39.081Z,5.40
2019-02-19T01:32:29.210Z,5.83
2019-02-19T01:35:20.058Z,5.53
2019-02-19T01:38:10.644Z,5.67
2019-02-19T01:41:00.890Z,5.30
2019-02-19T01:43:51.187Z,5.60
2019-02-19T01:46:41.921Z,6.03
2019-02-19T01:49:31.935Z,5.87
2019-02-19T01:52:22.113Z,5.13
2019-02-19T01:55:12.430Z,5.57
2019-02-19T01:58:02.339Z,6.43
2019-02-19T02:00:52.900Z,5.93
2019-02-19T02:03:43.761Z,5.60
2019-02-19T02:06:33.978Z,5.87
2019-02-19T02:09:24.065Z,5.37
2019-02-19T02:12:14.345Z,5.20
2019-02-19T02:15:04.686Z,5.43
2019-02-19T02:17:54.773Z,5.60
2019-02-19T02:20:45.041Z,5.77
2019-02-19T02:23:35.326Z,6.43
2019-02-19T02:26:25.742Z,6.60
2019-02-19T02:29:15.883Z,6.27
2019-02-19T02:32:06.081Z,6.63
2019-02-19T02:34:56.367Z,6.57
2019-02-19T02:37:46.870Z,6.33
2019-02-19T02:40:37.151Z,6.77
2019-02-19T02:43:27.585Z,7.07
2019-02-19T02:46:17.613Z,7.43
2019-02-19T02:49:07.954Z,7.63
2019-02-19T02:51:57.951Z,7.97
2019-02-19T02:54:48.019Z,7.30
2019-02-19T02:57:38.633Z,8.67
2019-02-19T03:00:29.022Z,7.47
2019-02-19T03:03:19.802Z,7.67
2019-02-19T03:06:32.062Z,7.53
2019-02-19T03:09:22.508Z,7.80
2019-02-19T03:12:12.774Z,8.20
2019-02-19T03:15:03.172Z,8.13
2019-02-19T03:17:53.254Z,8.57
2019-02-19T03:20:43.519Z,8.53
2019-02-19T03:23:33.757Z,8.57
2019-02-19T03:26:23.963Z,8.70
2019-02-19T03:29:14.192Z,8.17
2019-02-19T03:32:04.303Z,7.57
2019-02-19T03:34:54.687Z,8.30
2019-02-19T03:37:45.128Z,8.43
2019-02-19T03:40:35.951Z,9.00
2019-02-19T03:43:25.911Z,8.83
2019-02-19T03:46:16.633Z,8.80
2019-02-19T03:49:06.818Z,9.47
2019-02-19T03:51:56.961Z,9.23
2019-02-19T03:54:47.697Z,9.50
2019-02-19T03:57:37.666Z,9.17
2019-02-19T04:00:27.629Z,10.20
2019-02-19T04:03:18.259Z,9.30
2019-02-19T04:06:08.378Z,8.80
2019-02-19T04:08:58.450Z,9.17
2019-02-19T04:11:48.871Z,8.90
2019-02-19T04:14:38.822Z,9.03
2019-02-19T04:17:29.654Z,9.10
2019-02-19T04:20:19.934Z,9.77
2019-02-19T04:23:09.935Z,9.47
2019-02-19T04:25:59.941Z,10.23
2019-02-19T04:28:50.002Z,9.70
2019-02-19T04:31:40.430Z,8.10
2019-02-19T04:34:30.602Z,9.57
2019-02-19T04:37:20.970Z,8.37
2019-02-19T04:40:11.167Z,9.13
2019-02-19T04:43:01.678Z,9.13
2019-02-19T04:45:51.925Z,8.97
2019-02-19T04:48:42.192Z,8.53
2019-02-19T04:51:32.361Z,9.40
2019-02-19T04:54:22.455Z,9.77
2019-02-19T04:57:12.765Z,9.40
2019-02-19T05:00:03.206Z,9.53
2019-02-19T05:02:55.157Z,7.97
2019-02-19T05:05:46.122Z,8.73
2019-02-19T05:08:36.457Z,8.93
2019-02-19T05:11:26.437Z,8.70
2019-02-19T05:14:16.335Z,8.43
2019-02-19T05:17:06.521Z,8.87
2019-02-19T05:19:56.603Z,8.77
2019-02-19T05:22:47.010Z,9.03
2019-02-19T05:25:37.355Z,8.13
2019-02-19T05:28:27.423Z,8.43
2019-02-19T05:31:17.883Z,8.57
2019-02-19T05:34:08.216Z,8.03
2019-02-19T05:36:58.538Z,9.03
2019-02-19T05:39:48.549Z,8.20
2019-02-19T05:42:38.910Z,9.37
2019-02-19T05:45:29.641Z,8.70
2019-02-19T05:48:20.002Z,7.73
2019-02-19T05:51:09.886Z,7.93
2019-02-19T05:53:59.914Z,7.87
2019-02-19T05:56:50.272Z,7.80
2019-02-19T05:59:40.699Z,8.27
2019-02-19T06:02:31.793Z,8.40
2019-02-19T06:05:22.179Z,8.37
2019-02-19T06:08:12.462Z,8.80
2019-02-19T06:11:02.434Z,7.97
2019-02-19T06:13:53.130Z,8.03
2019-02-19T06:16:43.426Z,8.87
2019-02-19T06:19:33.734Z,8.67
2019-02-19T06:22:23.701Z,9.47
2019-02-19T06:25:13.796Z,18.20
2019-02-19T06:28:04.338Z,17.37
2019-02-19T06:30:54.830Z,15.40
2019-02-19T06:33:45.142Z,17.83
2019-02-19T06:36:35.191Z,14.47
2019-02-19T06:39:25.523Z,12.57
2019-02-19T06:42:16.386Z,9.40
2019-02-19T06:45:06.522Z,9.60
2019-02-19T06:47:56.698Z,11.70
2019-02-19T06:50:47.402Z,10.37
2019-02-19T06:53:37.518Z,9.77
2019-02-19T06:56:27.865Z,10.37
2019-02-19T06:59:18.141Z,9.20
2019-02-19T07:02:19.793Z,8.87
2019-02-19T07:05:15.391Z,8.93
2019-02-19T07:08:05.430Z,8.80
2019-02-19T07:10:55.763Z,8.90
2019-02-19T07:13:46.437Z,9.07
2019-02-19T07:16:36.682Z,8.63
2019-02-19T07:19:26.750Z,7.77
2019-02-19T07:22:16.918Z,7.53
2019-02-19T07:25:09.497Z,7.43
2019-02-19T07:27:59.402Z,6.90
2019-02-19T07:30:49.410Z,6.60
2019-02-19T07:33:39.687Z,6.30
2019-02-19T07:36:29.701Z,5.90
2019-02-19T07:39:19.638Z,6.40
2019-02-19T07:42:10.412Z,5.70
2019-02-19T07:45:00.650Z,6.97
2019-02-19T07:47:50.631Z,6.63
2019-02-19T07:50:42.022Z,5.67
2019-02-19T07:53:32.365Z,5.90
2019-02-19T07:56:22.397Z,6.70
2019-02-19T07:59:12.771Z,6.40
2019-02-19T08:02:03.275Z,6.63
2019-02-19T08:04:53.743Z,7.27
2019-02-19T08:07:44.229Z,6.50
2019-02-19T08:10:34.574Z,6.77
2019-02-19T08:13:24.869Z,8.00
2019-02-19T08:16:15.146Z,7.40
2019-02-19T08:19:05.481Z,7.60
2019-02-19T08:21:55.770Z,7.60
2019-02-19T08:24:46.306Z,7.53
2019-02-19T08:27:36.722Z,6.77
2019-02-19T08:30:27.150Z,7.70
2019-02-19T08:33:17.486Z,7.13
2019-02-19T08:36:08.435Z,7.50
2019-02-19T08:38:58.757Z,7.67
2019-02-19T08:41:48.758Z,7.37
2019-02-19T08:44:39.058Z,7.50
2019-02-19T08:47:29.203Z,7.63
2019-02-19T08:50:19.469Z,7.33
2019-02-19T08:53:09.714Z,7.77
2019-02-19T08:55:59.993Z,7.20
2019-02-19T08:58:50.278Z,6.17
2019-02-19T09:01:41.018Z,7.17
2019-02-19T09:04:31.295Z,7.30
2019-02-19T09:07:21.463Z,7.03
2019-02-19T09:10:11.505Z,6.93
2019-02-19T09:13:01.477Z,6.77
2019-02-19T09:15:51.744Z,7.07
2019-02-19T09:18:42.014Z,6.40
2019-02-19T09:21:32.326Z,6.83
2019-02-19T09:24:22.430Z,6.77
2019-02-19T09:27:12.909Z,6.70
2019-02-19T09:30:03.459Z,6.93
2019-02-19T09:32:55.130Z,6.20
2019-02-19T09:35:45.206Z,6.20
2019-02-19T09:38:35.453Z,6.60
2019-02-19T09:41:25.488Z,5.73
2019-02-19T09:44:16.849Z,6.60
2019-02-19T09:47:06.867Z,6.20
2019-02-19T09:49:56.961Z,6.17
2019-02-19T09:52:47.186Z,6.50
2019-02-19T09:55:37.226Z,5.77
2019-02-19T09:58:27.639Z,5.20
2019-02-19T10:01:18.106Z,6.73
2019-02-19T10:04:08.557Z,5.67
2019-02-19T10:06:58.635Z,5.20
2019-02-19T10:09:48.965Z,5.07
2019-02-19T10:12:39.137Z,5.63
2019-02-19T10:15:29.106Z,5.23
2019-02-19T10:18:19.310Z,5.80
2019-02-19T10:21:09.206Z,5.30
2019-02-19T10:23:59.394Z,4.73
2019-02-19T10:26:49.759Z,4.60
2019-02-19T10:29:40.502Z,4.63
2019-02-19T10:32:31.068Z,5.00
2019-02-19T10:35:21.119Z,4.67
2019-02-19T10:38:11.490Z,4.30
2019-02-19T10:41:01.749Z,4.20
2019-02-19T10:43:52.478Z,4.77
2019-02-19T10:46:42.530Z,4.43
2019-02-19T10:49:33.345Z,4.03
2019-02-19T10:52:23.466Z,4.10
2019-02-19T10:55:14.517Z,4.93
2019-02-19T10:58:05.059Z,3.13
2019-02-19T11:00:55.207Z,3.70
2019-02-19T11:03:45.337Z,3.53
2019-02-19T11:06:35.441Z,3.60
2019-02-19T11:09:25.746Z,3.50
2019-02-19T11:12:16.441Z,3.67
2019-02-19T11:15:07.252Z,3.10
2019-02-19T11:17:57.458Z,3.47
2019-02-19T11:20:47.696Z,3.23
2019-02-19T11:23:38.264Z,3.50
2019-02-19T11:26:29.150Z,3.93
2019-02-19T11:29:19.382Z,3.03
2019-02-19T11:32:09.291Z,3.53
2019-02-19T11:34:59.853Z,3.50
2019-02-19T11:37:49.887Z,3.53
2019-02-19T11:40:40.486Z,3.13
2019-02-19T11:43:30.766Z,3.57
2019-02-19T11:46:21.221Z,3.60
2019-02-19T11:49:11.506Z,3.70
2019-02-19T11:52:01.818Z,3.27
2019-02-19T11:54:52.159Z,3.20
2019-02-19T11:57:42.575Z,3.60
2019-02-19T12:00:36.108Z,2.80
2019-02-19T12:03:26.726Z,4.13
2019-02-19T12:06:16.797Z,3.47
2019-02-19T12:09:07.343Z,3.63
2019-02-19T12:11:57.397Z,3.10
2019-02-19T12:14:47.787Z,3.70
2019-02-19T12:17:38.075Z,3.40
2019-02-19T12:20:28.069Z,3.50
2019-02-19T12:23:18.105Z,3.73
2019-02-19T12:26:09.110Z,3.27
2019-02-19T12:28:59.254Z,3.20
2019-02-19T12:31:49.665Z,3.17
2019-02-19T12:34:39.901Z,2.80
2019-02-19T12:37:30.172Z,3.53
2019-02-19T12:40:20.326Z,2.67
2019-02-19T12:43:10.499Z,2.40
2019-02-19T12:46:00.819Z,2.40
2019-02-19T12:48:54.623Z,3.13
2019-02-19T12:51:43.131Z,12.57
2019-02-19T12:54:33.422Z,4.63
2019-02-19T12:57:23.622Z,3.83
2019-02-19T13:00:15.471Z,3.10
2019-02-19T13:03:05.850Z,3.07
2019-02-19T13:05:56.772Z,3.77
2019-02-19T13:08:47.722Z,3.13
2019-02-19T13:11:37.935Z,3.70
2019-02-19T13:14:28.043Z,3.57
2019-02-19T13:17:18.273Z,3.37
2019-02-19T13:20:10.253Z,3.80
2019-02-19T13:23:01.001Z,3.50
2019-02-19T13:25:51.109Z,3.53
2019-02-19T13:28:41.094Z,3.17
2019-02-19T13:31:31.140Z,4.03
2019-02-19T13:34:21.259Z,3.33
2019-02-19T13:37:11.553Z,3.43
2019-02-19T13:40:01.641Z,2.97
2019-02-19T13:42:51.658Z,3.23
2019-02-19T13:45:41.958Z,2.80
2019-02-19T13:48:33.311Z,2.97
2019-02-19T13:51:24.008Z,3.10
2019-02-19T13:54:31.777Z,3.23
2019-02-19T13:57:22.090Z,2.70
2019-02-19T14:00:18.150Z,2.40
2019-02-19T14:03:08.436Z,1.90
2019-02-19T14:05:58.343Z,2.43
2019-02-19T14:08:48.695Z,2.57
2019-02-19T14:11:38.794Z,3.17
2019-02-19T14:14:40.378Z,4.40
2019-02-19T14:17:30.630Z,3.60
2019-02-19T14:20:43.307Z,4.20
2019-02-19T14:23:58.525Z,3.40
2019-02-19T14:27:05.159Z,3.83
2019-02-19T14:30:17.942Z,2.83
2019-02-19T14:33:25.851Z,3.20
2019-02-19T14:36:34.014Z,4.33
2019-02-19T14:40:09.845Z,2.80
2019-02-19T14:43:27.553Z,3.13
2019-02-19T14:46:34.290Z,2.90
2019-02-19T14:49:47.484Z,3.50
2019-02-19T14:53:03.765Z,2.50
2019-02-19T14:56:22.170Z,2.67
2019-02-19T14:59:31.897Z,3.33
2019-02-19T15:02:31.840Z,3.17
2019-02-19T15:05:40.641Z,3.17
2019-02-19T15:08:58.969Z,2.77
2019-02-19T15:12:07.845Z,2.63
2019-02-19T15:15:13.690Z,2.83
2019-02-19T15:18:32.102Z,3.60
2019-02-19T15:21:47.976Z,3.17
2019-02-19T15:25:06.921Z,3.20
2019-02-19T15:28:14.660Z,2.93
2019-02-19T15:31:27.781Z,2.60
2019-02-19T15:34:29.294Z,3.57
2019-02-19T15:37:38.314Z,3.80
2019-02-19T15:40:50.759Z,3.03
2019-02-19T15:43:50.841Z,2.80
2019-02-19T15:47:06.369Z,3.27
2019-02-19T15:50:30.985Z,3.63
2019-02-19T15:53:42.786Z,4.80
2019-02-19T15:56:55.638Z,4.53
2019-02-19T16:00:04.470Z,4.13
2019-02-19T16:03:16.660Z,4.73
2019-02-19T16:06:25.818Z,4.13
2019-02-19T16:09:28.387Z,3.87
2019-02-19T16:12:45.131Z,3.00
2019-02-19T16:15:47.497Z,2.97
2019-02-19T16:18:55.626Z,2.93
2019-02-19T16:21:58.071Z,2.60
2019-02-19T16:25:04.829Z,2.40
2019-02-19T16:28:23.194Z,3.40
2019-02-19T16:31:38.434Z,2.67
2019-02-19T16:34:35.893Z,3.20
2019-02-19T16:37:27.989Z,3.70
2019-02-19T16:40:28.214Z,3.33
2019-02-19T16:43:35.983Z,2.97
2019-02-19T16:46:39.000Z,3.30
2019-02-19T16:49:38.530Z,2.43
2019-02-19T16:52:57.126Z,3.30
2019-02-19T16:56:00.178Z,3.70
2019-02-19T16:59:10.317Z,8.10
2019-02-19T17:02:28.672Z,3.70
2019-02-19T17:05:42.911Z,4.33
2019-02-19T17:09:03.749Z,4.80
2019-02-19T17:12:31.054Z,7.27
2019-02-19T17:15:49.242Z,8.20
2019-02-19T17:18:58.277Z,7.47
2019-02-19T17:21:59.022Z,5.27
2019-02-19T17:25:07.125Z,4.20
2019-02-19T17:28:16.115Z,8.17
2019-02-19T17:31:24.187Z,9.10
2019-02-19T17:34:46.436Z,8.60
2019-02-19T17:37:55.950Z,4.63
2019-02-19T17:41:07.040Z,5.67
